KWWR/WWR METAR and TAF weather

Enter ICAO airport designator
Station Type Date Time Source
KWWR METAR 2022/12/08 12:55 UTC NOAA

KWWR 081255Z AUTO 10004KT 2 1/2SM BR OVC005 06/06 A3012 RMK AO2


Station Type Date Time Source
KWWR Decoded METAR 2022/12/08 12:55 UTC NOAA

Woodward, West Woodward Airport, OK, United States (KWWR) 36-26-12N 099-31-16W 667M
Dec 08, 2022 - 07:55 AM EST / 2022.12.08 1255 UTC
Wind: from the E (100 degrees) at 5 MPH (4 KT):0
Visibility: 2 1/2 mile(s):0
Sky conditions: overcast
Weather: mist
Temperature: 42 F (6 C)
Dew Point: 42 F (6 C)
Relative Humidity: 100%
Pressure (altimeter): 30.12 in. Hg (1019 hPa)
ob: KWWR 081255Z AUTO 10004KT 2 1/2SM BR OVC005 06/06 A3012 RMK AO2
cycle: 13

Station Type Date Time Source
KWWR TAF 2022/12/08 12:22 UTC NOAA

TAF KWWR 081120Z 0812/0912 18009KT 1/4SM FG OVC001
FM081600 24015G21KT P6SM SKC
FM082100 29014G20KT P6SM SKC
FM090100 36006KT P6SM SCT250

Example: see airport list